DAL1702 KBNA-KLGA
Flight info
| Callsign | DAL1702 |
|---|---|
| Flight time | 1h 56m |
| Altitude | 35000 |
| Route | KRSTA4 OLSIE IIU Q139 CREEP Q29 WWSHR TEESY Q186 WEVEL ETG MIP4 |
| Aircraft | B738/M-SDE2E3FGHIRWXY/LB1 |
Departure
| Time | 2026-05-05 23:59 |
|---|---|
| Airport | Nashville International Airport (KBNA) |
Arrival
| Time | 2026-05-06 01:55 |
|---|---|
| Airport | LaGuardia Airport (KLGA) |
| Time | Latitude | Longitude | Altitude | Speed | Heading |
|---|---|---|---|---|---|
| 2026-05-05 23:10 | 36.12954 | -86.66791 | 569 ft | 0 kts | 39° |
| 2026-05-05 23:48 | 36.12941 | -86.66805 | 569 ft | 3 kts | 39° |
| 2026-05-05 23:48 | 36.12922 | -86.66821 | 568 ft | 4 kts | 11° |
| 2026-05-05 23:48 | 36.12900 | -86.66815 | 570 ft | 4 kts | 315° |
| 2026-05-05 23:49 | 36.12890 | -86.66801 | 571 ft | 1 kts | 311° |
| 2026-05-05 23:49 | 36.12889 | -86.66799 | 571 ft | 1 kts | 311° |
| 2026-05-05 23:52 | 36.12889 | -86.66803 | 570 ft | 1 kts | 282° |
| 2026-05-05 23:53 | 36.12881 | -86.66806 | 576 ft | 3 kts | 190° |
| 2026-05-05 23:53 | 36.12823 | -86.66783 | 570 ft | 14 kts | 165° |
| 2026-05-05 23:53 | 36.12731 | -86.66811 | 571 ft | 14 kts | 218° |
| 2026-05-05 23:53 | 36.12668 | -86.66893 | 571 ft | 13 kts | 246° |
| 2026-05-05 23:54 | 36.12696 | -86.66998 | 568 ft | 15 kts | 308° |
| 2026-05-05 23:54 | 36.12766 | -86.67105 | 569 ft | 16 kts | 310° |
| 2026-05-05 23:54 | 36.12843 | -86.67210 | 569 ft | 15 kts | 304° |
| 2026-05-05 23:54 | 36.12808 | -86.67322 | 574 ft | 15 kts | 225° |
| 2026-05-05 23:55 | 36.12735 | -86.67408 | 573 ft | 14 kts | 219° |
| 2026-05-05 23:55 | 36.12645 | -86.67478 | 575 ft | 17 kts | 208° |
| 2026-05-05 23:55 | 36.12538 | -86.67578 | 577 ft | 21 kts | 221° |
| 2026-05-05 23:55 | 36.12419 | -86.67678 | 578 ft | 21 kts | 202° |
| 2026-05-05 23:56 | 36.12363 | -86.67793 | 577 ft | 17 kts | 294° |
| 2026-05-05 23:56 | 36.12383 | -86.67858 | 578 ft | 0 kts | 284° |
| 2026-05-05 23:56 | 36.12383 | -86.67860 | 579 ft | 0 kts | 284° |
| 2026-05-05 23:57 | 36.12384 | -86.67861 | 579 ft | 0 kts | 284° |
| 2026-05-05 23:57 | 36.12384 | -86.67862 | 579 ft | 0 kts | 284° |
| 2026-05-05 23:57 | 36.12384 | -86.67865 | 579 ft | 1 kts | 284° |
| 2026-05-05 23:57 | 36.12391 | -86.67908 | 576 ft | 10 kts | 275° |
| 2026-05-05 23:58 | 36.12372 | -86.67975 | 576 ft | 1 kts | 216° |
| 2026-05-05 23:58 | 36.12366 | -86.67980 | 576 ft | 2 kts | 211° |
| 2026-05-05 23:58 | 36.12125 | -86.68077 | 577 ft | 77 kts | 197° |
| 2026-05-05 23:58 | 36.11375 | -86.68364 | 585 ft | 145 kts | 192° |
| 2026-05-05 23:59 | 36.10335 | -86.68772 | 1053 ft | 171 kts | 197° |
| 2026-05-05 23:59 | 36.09144 | -86.69317 | 1623 ft | 195 kts | 197° |
| 2026-05-05 23:59 | 36.07926 | -86.70135 | 2110 ft | 210 kts | 227° |
| 2026-05-05 23:59 | 36.07431 | -86.71838 | 2834 ft | 215 kts | 255° |
| 2026-05-06 00:00 | 36.07127 | -86.73713 | 3147 ft | 233 kts | 249° |
| 2026-05-06 00:00 | 36.06668 | -86.75666 | 3874 ft | 237 kts | 250° |
| 2026-05-06 00:00 | 36.06650 | -86.77701 | 4843 ft | 243 kts | 275° |
| 2026-05-06 00:00 | 36.07047 | -86.79730 | 5722 ft | 245 kts | 278° |
| 2026-05-06 00:01 | 36.07480 | -86.81775 | 6463 ft | 244 kts | 279° |
| 2026-05-06 00:01 | 36.07933 | -86.83815 | 6832 ft | 249 kts | 284° |
| 2026-05-06 00:01 | 36.08886 | -86.85649 | 6913 ft | 263 kts | 310° |
| 2026-05-06 00:01 | 36.10493 | -86.86815 | 7210 ft | 283 kts | 334° |
| 2026-05-06 00:02 | 36.12518 | -86.87091 | 8011 ft | 300 kts | 0° |
| 2026-05-06 00:02 | 36.14577 | -86.86583 | 8938 ft | 302 kts | 6° |
| 2026-05-06 00:02 | 36.16626 | -86.85968 | 9731 ft | 305 kts | 6° |
| 2026-05-06 00:02 | 36.18709 | -86.85331 | 10350 ft | 313 kts | 6° |
| 2026-05-06 00:03 | 36.20901 | -86.84675 | 10556 ft | 337 kts | 7° |
| 2026-05-06 00:03 | 36.23226 | -86.83986 | 10740 ft | 359 kts | 7° |
| 2026-05-06 00:03 | 36.25729 | -86.83248 | 10881 ft | 379 kts | 7° |
| 2026-05-06 00:03 | 36.28357 | -86.82477 | 11093 ft | 396 kts | 8° |
| 2026-05-06 00:04 | 36.31073 | -86.81677 | 11528 ft | 404 kts | 8° |
| 2026-05-06 00:04 | 36.33747 | -86.80513 | 12173 ft | 416 kts | 25° |
| 2026-05-06 00:04 | 36.36035 | -86.78251 | 12828 ft | 426 kts | 44° |
| 2026-05-06 00:04 | 36.38026 | -86.75489 | 13432 ft | 431 kts | 46° |
| 2026-05-06 00:05 | 36.42002 | -86.69817 | 14449 ft | 439 kts | 46° |
| 2026-05-06 00:05 | 36.44028 | -86.66952 | 14932 ft | 443 kts | 45° |
| 2026-05-06 00:05 | 36.46083 | -86.64073 | 15418 ft | 447 kts | 45° |
| 2026-05-06 00:06 | 36.48156 | -86.61184 | 15915 ft | 449 kts | 45° |
| 2026-05-06 00:06 | 36.50249 | -86.58272 | 16390 ft | 453 kts | 45° |
| 2026-05-06 00:06 | 36.52357 | -86.55338 | 16862 ft | 455 kts | 45° |
| 2026-05-06 00:06 | 36.54462 | -86.52405 | 17417 ft | 456 kts | 45° |
| 2026-05-06 00:07 | 36.56582 | -86.49453 | 17842 ft | 459 kts | 44° |
| 2026-05-06 00:07 | 36.58946 | -86.46897 | 18170 ft | 456 kts | 26° |
| 2026-05-06 00:07 | 36.61806 | -86.45287 | 18573 ft | 450 kts | 16° |
| 2026-05-06 00:07 | 36.64739 | -86.43895 | 19007 ft | 451 kts | 16° |
| 2026-05-06 00:08 | 36.67668 | -86.42459 | 19379 ft | 455 kts | 17° |
| 2026-05-06 00:08 | 36.70607 | -86.40968 | 19769 ft | 457 kts | 17° |
| 2026-05-06 00:08 | 36.73533 | -86.39432 | 20224 ft | 459 kts | 19° |
| 2026-05-06 00:08 | 36.76426 | -86.37690 | 20581 ft | 463 kts | 22° |
| 2026-05-06 00:09 | 36.79302 | -86.35817 | 20910 ft | 467 kts | 23° |
| 2026-05-06 00:09 | 36.82171 | -86.33900 | 21257 ft | 470 kts | 23° |
| 2026-05-06 00:09 | 36.85061 | -86.31970 | 21591 ft | 472 kts | 22° |
| 2026-05-06 00:09 | 36.87027 | -86.30667 | 21816 ft | 473 kts | 22° |
| 2026-05-06 00:10 | 36.89908 | -86.28775 | 22141 ft | 475 kts | 22° |
| 2026-05-06 00:10 | 36.92849 | -86.26858 | 22448 ft | 478 kts | 22° |
| 2026-05-06 00:10 | 36.95811 | -86.24937 | 22712 ft | 482 kts | 22° |
| 2026-05-06 00:10 | 36.98798 | -86.23002 | 22937 ft | 485 kts | 22° |
| 2026-05-06 00:11 | 37.01805 | -86.21051 | 23284 ft | 486 kts | 22° |
| 2026-05-06 00:11 | 37.04821 | -86.19092 | 23584 ft | 488 kts | 22° |
| 2026-05-06 00:11 | 37.07836 | -86.17130 | 23850 ft | 489 kts | 21° |
| 2026-05-06 00:11 | 37.10859 | -86.15160 | 24146 ft | 490 kts | 21° |
| 2026-05-06 00:12 | 37.13890 | -86.13184 | 24403 ft | 491 kts | 21° |
| 2026-05-06 00:12 | 37.16922 | -86.11206 | 24636 ft | 493 kts | 21° |
| 2026-05-06 00:12 | 37.19973 | -86.09216 | 24883 ft | 495 kts | 21° |
| 2026-05-06 00:12 | 37.23031 | -86.07217 | 25109 ft | 496 kts | 21° |
| 2026-05-06 00:13 | 37.26130 | -86.05302 | 25341 ft | 496 kts | 18° |
| 2026-05-06 00:13 | 37.29268 | -86.03518 | 25553 ft | 496 kts | 17° |
| 2026-05-06 00:13 | 37.32437 | -86.01784 | 25790 ft | 497 kts | 16° |
| 2026-05-06 00:13 | 37.35615 | -86.00058 | 26030 ft | 498 kts | 16° |
| 2026-05-06 00:14 | 37.38797 | -85.98318 | 26247 ft | 499 kts | 16° |
| 2026-05-06 00:14 | 37.41944 | -85.96577 | 26485 ft | 501 kts | 16° |
| 2026-05-06 00:14 | 37.45136 | -85.94793 | 26731 ft | 502 kts | 16° |
| 2026-05-06 00:14 | 37.48322 | -85.92999 | 27033 ft | 501 kts | 16° |
| 2026-05-06 00:15 | 37.51501 | -85.91201 | 27401 ft | 499 kts | 16° |
| 2026-05-06 00:15 | 37.54663 | -85.89409 | 27769 ft | 497 kts | 16° |
| 2026-05-06 00:15 | 37.57809 | -85.87627 | 28104 ft | 496 kts | 16° |
| 2026-05-06 00:15 | 37.60962 | -85.85841 | 28419 ft | 496 kts | 15° |
| 2026-05-06 00:16 | 37.64112 | -85.84056 | 28757 ft | 495 kts | 15° |
| 2026-05-06 00:16 | 37.67248 | -85.82278 | 29172 ft | 493 kts | 15° |
| 2026-05-06 00:16 | 37.70363 | -85.80509 | 29580 ft | 491 kts | 15° |
| 2026-05-06 00:16 | 37.73474 | -85.78742 | 29930 ft | 489 kts | 15° |
| 2026-05-06 00:17 | 37.76578 | -85.76978 | 30214 ft | 489 kts | 14° |
| 2026-05-06 00:17 | 37.79685 | -85.75211 | 30487 ft | 489 kts | 14° |
| 2026-05-06 00:17 | 37.82783 | -85.73447 | 30761 ft | 488 kts | 14° |
| 2026-05-06 00:17 | 37.85877 | -85.71683 | 31075 ft | 487 kts | 14° |
| 2026-05-06 00:18 | 37.88922 | -85.69946 | 31413 ft | 486 kts | 14° |
| 2026-05-06 00:18 | 37.92004 | -85.68186 | 31650 ft | 486 kts | 14° |
| 2026-05-06 00:18 | 37.95086 | -85.66425 | 31891 ft | 486 kts | 14° |
| 2026-05-06 00:18 | 37.98179 | -85.64653 | 32211 ft | 485 kts | 13° |
| 2026-05-06 00:19 | 38.01250 | -85.62894 | 32488 ft | 484 kts | 13° |
| 2026-05-06 00:19 | 38.04322 | -85.61133 | 32727 ft | 484 kts | 13° |
| 2026-05-06 00:19 | 38.07397 | -85.59369 | 32984 ft | 484 kts | 13° |
| 2026-05-06 00:19 | 38.10459 | -85.57603 | 33272 ft | 484 kts | 14° |
| 2026-05-06 00:20 | 38.13484 | -85.55699 | 33552 ft | 487 kts | 16° |
| 2026-05-06 00:20 | 38.16454 | -85.53701 | 33742 ft | 490 kts | 17° |
| 2026-05-06 00:20 | 38.19457 | -85.51624 | 33957 ft | 490 kts | 17° |
| 2026-05-06 00:20 | 38.22443 | -85.49543 | 34188 ft | 489 kts | 17° |
| 2026-05-06 00:21 | 38.25423 | -85.47475 | 34455 ft | 487 kts | 17° |
| 2026-05-06 00:21 | 38.28395 | -85.45427 | 34691 ft | 485 kts | 16° |
| 2026-05-06 00:21 | 38.31369 | -85.43393 | 34826 ft | 486 kts | 16° |
| 2026-05-06 00:22 | 38.37370 | -85.39311 | 34823 ft | 487 kts | 16° |
| 2026-05-06 00:22 | 38.43281 | -85.35272 | 34822 ft | 482 kts | 16° |
| 2026-05-06 00:23 | 38.49184 | -85.31232 | 34825 ft | 480 kts | 16° |
| 2026-05-06 00:23 | 38.55062 | -85.27205 | 34829 ft | 478 kts | 16° |
| 2026-05-06 00:24 | 38.60925 | -85.23182 | 34838 ft | 480 kts | 16° |
| 2026-05-06 00:24 | 38.66860 | -85.19103 | 34835 ft | 487 kts | 16° |
| 2026-05-06 00:25 | 38.72840 | -85.14975 | 34832 ft | 489 kts | 16° |
| 2026-05-06 00:25 | 38.78796 | -85.10858 | 34827 ft | 490 kts | 16° |
| 2026-05-06 00:26 | 38.84816 | -85.06688 | 34821 ft | 491 kts | 16° |
| 2026-05-06 00:26 | 38.90819 | -85.02516 | 34829 ft | 490 kts | 16° |
| 2026-05-06 00:27 | 38.96803 | -84.98352 | 34816 ft | 488 kts | 16° |
| 2026-05-06 00:27 | 39.02768 | -84.94194 | 34837 ft | 486 kts | 16° |
| 2026-05-06 00:28 | 39.08708 | -84.90048 | 34823 ft | 484 kts | 15° |
| 2026-05-06 00:28 | 39.14630 | -84.85917 | 34831 ft | 482 kts | 15° |
| 2026-05-06 00:29 | 39.20529 | -84.81775 | 34823 ft | 483 kts | 16° |
| 2026-05-06 00:29 | 39.26383 | -84.77651 | 34849 ft | 483 kts | 15° |
| 2026-05-06 00:30 | 39.32294 | -84.73487 | 34850 ft | 484 kts | 15° |
| 2026-05-06 00:30 | 39.38220 | -84.69307 | 34831 ft | 486 kts | 15° |
| 2026-05-06 00:31 | 39.44167 | -84.65103 | 34842 ft | 487 kts | 16° |
| 2026-05-06 00:31 | 39.50122 | -84.60883 | 34853 ft | 488 kts | 15° |
| 2026-05-06 00:32 | 39.56084 | -84.56650 | 34838 ft | 488 kts | 15° |
| 2026-05-06 00:32 | 39.62005 | -84.52437 | 34840 ft | 488 kts | 15° |
| 2026-05-06 00:33 | 39.67952 | -84.48198 | 34877 ft | 487 kts | 15° |
| 2026-05-06 00:33 | 39.73904 | -84.43948 | 34847 ft | 487 kts | 15° |
| 2026-05-06 00:34 | 39.79846 | -84.39696 | 34840 ft | 486 kts | 15° |
| 2026-05-06 00:34 | 39.85765 | -84.35452 | 34842 ft | 485 kts | 15° |
| 2026-05-06 00:35 | 39.91655 | -84.31104 | 34851 ft | 494 kts | 21° |
| 2026-05-06 00:35 | 39.94400 | -84.28304 | 34843 ft | 510 kts | 31° |
| 2026-05-06 00:35 | 39.96977 | -84.25093 | 34848 ft | 512 kts | 33° |
| 2026-05-06 00:36 | 40.02014 | -84.18523 | 34839 ft | 511 kts | 33° |
| 2026-05-06 00:36 | 40.07044 | -84.11997 | 34844 ft | 508 kts | 32° |
| 2026-05-06 00:37 | 40.12084 | -84.05563 | 34876 ft | 506 kts | 32° |
| 2026-05-06 00:37 | 40.17089 | -83.99202 | 34868 ft | 504 kts | 32° |
| 2026-05-06 00:38 | 40.22110 | -83.92802 | 34862 ft | 503 kts | 32° |
| 2026-05-06 00:38 | 40.27107 | -83.86413 | 34874 ft | 501 kts | 32° |
| 2026-05-06 00:39 | 40.32089 | -83.80024 | 34918 ft | 501 kts | 32° |
| 2026-05-06 00:39 | 40.37069 | -83.73628 | 34877 ft | 501 kts | 32° |
| 2026-05-06 00:40 | 40.42056 | -83.67206 | 34867 ft | 502 kts | 32° |
| 2026-05-06 00:40 | 40.47007 | -83.60816 | 34869 ft | 502 kts | 32° |
| 2026-05-06 00:41 | 40.51988 | -83.54374 | 34868 ft | 502 kts | 32° |
| 2026-05-06 00:41 | 40.56969 | -83.47914 | 34864 ft | 502 kts | 33° |
| 2026-05-06 00:42 | 40.61939 | -83.41451 | 34866 ft | 502 kts | 33° |
| 2026-05-06 00:42 | 40.66905 | -83.34982 | 34857 ft | 502 kts | 33° |
| 2026-05-06 00:43 | 40.71746 | -83.28264 | 34895 ft | 513 kts | 40° |
| 2026-05-06 00:43 | 40.76144 | -83.20788 | 34865 ft | 518 kts | 43° |
| 2026-05-06 00:44 | 40.80473 | -83.13190 | 34883 ft | 517 kts | 42° |
| 2026-05-06 00:44 | 40.84842 | -83.05654 | 34867 ft | 516 kts | 41° |
| 2026-05-06 00:45 | 40.89208 | -82.98206 | 34867 ft | 514 kts | 41° |
| 2026-05-06 00:45 | 40.93591 | -82.90725 | 34881 ft | 514 kts | 41° |
| 2026-05-06 00:46 | 40.97957 | -82.83245 | 34868 ft | 513 kts | 42° |
| 2026-05-06 00:46 | 41.02314 | -82.75755 | 34852 ft | 513 kts | 42° |
| 2026-05-06 00:47 | 41.06653 | -82.68277 | 34855 ft | 511 kts | 42° |
| 2026-05-06 00:47 | 41.10983 | -82.60798 | 34861 ft | 511 kts | 42° |
| 2026-05-06 00:48 | 41.15185 | -82.53135 | 34862 ft | 522 kts | 51° |
| 2026-05-06 00:48 | 41.18640 | -82.44598 | 34872 ft | 527 kts | 54° |
| 2026-05-06 00:49 | 41.21998 | -82.35934 | 34874 ft | 526 kts | 54° |
| 2026-05-06 00:49 | 41.25418 | -82.27347 | 34874 ft | 526 kts | 53° |
| 2026-05-06 00:50 | 41.28865 | -82.18791 | 34881 ft | 525 kts | 53° |
| 2026-05-06 00:50 | 41.32274 | -82.10238 | 34887 ft | 528 kts | 56° |
| 2026-05-06 00:51 | 41.34568 | -82.00798 | 34882 ft | 545 kts | 76° |
| 2026-05-06 00:51 | 41.35174 | -81.90678 | 34856 ft | 550 kts | 84° |
| 2026-05-06 00:52 | 41.35525 | -81.80524 | 34851 ft | 549 kts | 84° |
| 2026-05-06 00:52 | 41.35927 | -81.70364 | 34855 ft | 549 kts | 83° |
| 2026-05-06 00:53 | 41.36379 | -81.60226 | 34858 ft | 548 kts | 83° |
| 2026-05-06 00:53 | 41.36837 | -81.50111 | 34867 ft | 547 kts | 83° |
| 2026-05-06 00:54 | 41.37282 | -81.40008 | 34862 ft | 546 kts | 83° |
| 2026-05-06 00:54 | 41.37709 | -81.29986 | 34864 ft | 545 kts | 83° |
| 2026-05-06 00:55 | 41.38127 | -81.19933 | 34863 ft | 544 kts | 83° |
| 2026-05-06 00:55 | 41.38537 | -81.09883 | 34863 ft | 543 kts | 83° |
| 2026-05-06 00:56 | 41.38938 | -80.99855 | 34860 ft | 542 kts | 83° |
| 2026-05-06 00:56 | 41.39264 | -80.91530 | 34865 ft | 541 kts | 83° |
| 2026-05-06 00:57 | 41.39709 | -80.79905 | 34857 ft | 540 kts | 83° |
| 2026-05-06 00:57 | 41.40022 | -80.71554 | 34861 ft | 539 kts | 83° |
| 2026-05-06 00:58 | 41.40387 | -80.61593 | 34867 ft | 538 kts | 84° |
| 2026-05-06 00:58 | 41.40742 | -80.51645 | 34866 ft | 537 kts | 84° |
| 2026-05-06 00:59 | 41.41088 | -80.41733 | 34861 ft | 535 kts | 84° |
| 2026-05-06 00:59 | 41.41422 | -80.31907 | 34863 ft | 533 kts | 84° |
| 2026-05-06 01:00 | 41.41750 | -80.22042 | 34861 ft | 532 kts | 84° |
| 2026-05-06 01:00 | 41.42056 | -80.12217 | 34863 ft | 530 kts | 86° |
| 2026-05-06 01:01 | 41.41456 | -80.02424 | 34868 ft | 531 kts | 97° |
| 2026-05-06 01:01 | 41.40401 | -79.92690 | 34847 ft | 530 kts | 97° |
| 2026-05-06 01:02 | 41.39371 | -79.82976 | 34845 ft | 529 kts | 97° |
| 2026-05-06 01:02 | 41.38401 | -79.73262 | 34847 ft | 528 kts | 97° |
| 2026-05-06 01:03 | 41.37447 | -79.63565 | 34853 ft | 528 kts | 97° |
| 2026-05-06 01:03 | 41.36489 | -79.53936 | 34844 ft | 527 kts | 97° |
| 2026-05-06 01:04 | 41.35514 | -79.44260 | 34850 ft | 527 kts | 97° |
| 2026-05-06 01:04 | 41.34528 | -79.34584 | 34852 ft | 527 kts | 97° |
| 2026-05-06 01:05 | 41.33536 | -79.24921 | 34831 ft | 527 kts | 97° |
| 2026-05-06 01:05 | 41.32537 | -79.15274 | 34853 ft | 526 kts | 97° |
| 2026-05-06 01:06 | 41.31531 | -79.05638 | 34826 ft | 526 kts | 97° |
| 2026-05-06 01:06 | 41.30520 | -78.96018 | 34843 ft | 525 kts | 97° |
| 2026-05-06 01:07 | 41.29509 | -78.86474 | 34853 ft | 524 kts | 97° |
| 2026-05-06 01:07 | 41.28463 | -78.76865 | 34845 ft | 524 kts | 98° |
| 2026-05-06 01:08 | 41.27399 | -78.67283 | 34821 ft | 524 kts | 98° |
| 2026-05-06 01:08 | 41.26333 | -78.57701 | 34550 ft | 523 kts | 98° |
| 2026-05-06 01:08 | 41.25803 | -78.52950 | 34310 ft | 517 kts | 98° |
| 2026-05-06 01:09 | 41.25274 | -78.48232 | 34076 ft | 514 kts | 98° |
| 2026-05-06 01:09 | 41.24745 | -78.43521 | 33853 ft | 515 kts | 98° |
| 2026-05-06 01:09 | 41.24219 | -78.38806 | 33588 ft | 515 kts | 98° |
| 2026-05-06 01:09 | 41.23707 | -78.34156 | 33338 ft | 516 kts | 99° |
| 2026-05-06 01:10 | 41.23189 | -78.29443 | 33063 ft | 516 kts | 99° |
| 2026-05-06 01:10 | 41.22667 | -78.24720 | 32883 ft | 514 kts | 99° |
| 2026-05-06 01:10 | 41.22145 | -78.20037 | 32855 ft | 511 kts | 99° |
| 2026-05-06 01:11 | 41.21079 | -78.10669 | 32855 ft | 515 kts | 100° |
| 2026-05-06 01:11 | 41.20511 | -78.06011 | 32823 ft | 504 kts | 100° |
| 2026-05-06 01:11 | 41.19944 | -78.01482 | 32819 ft | 488 kts | 100° |
| 2026-05-06 01:11 | 41.19391 | -77.97108 | 32810 ft | 474 kts | 101° |
| 2026-05-06 01:12 | 41.18850 | -77.92830 | 32701 ft | 464 kts | 101° |
| 2026-05-06 01:12 | 41.18320 | -77.88639 | 32396 ft | 459 kts | 101° |
| 2026-05-06 01:12 | 41.17795 | -77.84478 | 31910 ft | 458 kts | 101° |
| 2026-05-06 01:12 | 41.17261 | -77.80266 | 30880 ft | 470 kts | 102° |
| 2026-05-06 01:13 | 41.16705 | -77.75896 | 29713 ft | 487 kts | 102° |
| 2026-05-06 01:13 | 41.16149 | -77.71511 | 29002 ft | 488 kts | 102° |
| 2026-05-06 01:13 | 41.15583 | -77.67042 | 28567 ft | 481 kts | 102° |
| 2026-05-06 01:13 | 41.15040 | -77.62757 | 28156 ft | 475 kts | 102° |
| 2026-05-06 01:14 | 41.13950 | -77.54206 | 27270 ft | 465 kts | 103° |
| 2026-05-06 01:14 | 41.13411 | -77.50008 | 27017 ft | 456 kts | 103° |
| 2026-05-06 01:14 | 41.12882 | -77.45899 | 26756 ft | 451 kts | 103° |
| 2026-05-06 01:15 | 41.12346 | -77.41764 | 26512 ft | 457 kts | 103° |
| 2026-05-06 01:15 | 41.11800 | -77.37580 | 26273 ft | 462 kts | 103° |
| 2026-05-06 01:15 | 41.11252 | -77.33381 | 26013 ft | 459 kts | 103° |
| 2026-05-06 01:15 | 41.10710 | -77.29222 | 25773 ft | 455 kts | 103° |
| 2026-05-06 01:16 | 41.10172 | -77.25101 | 25538 ft | 454 kts | 103° |
| 2026-05-06 01:16 | 41.09630 | -77.20972 | 25214 ft | 453 kts | 104° |
| 2026-05-06 01:16 | 41.09092 | -77.16875 | 24897 ft | 449 kts | 104° |
| 2026-05-06 01:16 | 41.08558 | -77.12823 | 24598 ft | 445 kts | 104° |
| 2026-05-06 01:17 | 41.08032 | -77.08843 | 24269 ft | 442 kts | 104° |
| 2026-05-06 01:17 | 41.07500 | -77.04837 | 23961 ft | 440 kts | 104° |
| 2026-05-06 01:17 | 41.06969 | -77.00854 | 23652 ft | 438 kts | 105° |
| 2026-05-06 01:17 | 41.06439 | -76.96886 | 23308 ft | 435 kts | 105° |
| 2026-05-06 01:18 | 41.05910 | -76.92937 | 22962 ft | 433 kts | 105° |
| 2026-05-06 01:18 | 41.05384 | -76.89016 | 22612 ft | 431 kts | 105° |
| 2026-05-06 01:18 | 41.04860 | -76.85121 | 22281 ft | 429 kts | 105° |
| 2026-05-06 01:18 | 41.04336 | -76.81241 | 21973 ft | 426 kts | 105° |
| 2026-05-06 01:19 | 41.03815 | -76.77385 | 21663 ft | 424 kts | 105° |
| 2026-05-06 01:19 | 41.03294 | -76.73539 | 21361 ft | 422 kts | 105° |
| 2026-05-06 01:19 | 41.02776 | -76.69727 | 21057 ft | 420 kts | 105° |
| 2026-05-06 01:19 | 41.02244 | -76.65933 | 20773 ft | 417 kts | 107° |
| 2026-05-06 01:20 | 41.01490 | -76.62203 | 20643 ft | 426 kts | 112° |
| 2026-05-06 01:20 | 41.00565 | -76.58446 | 20490 ft | 443 kts | 114° |
| 2026-05-06 01:20 | 40.99550 | -76.54514 | 20305 ft | 459 kts | 113° |
| 2026-05-06 01:20 | 40.98508 | -76.50439 | 20114 ft | 470 kts | 113° |
| 2026-05-06 01:21 | 40.97484 | -76.46319 | 19871 ft | 470 kts | 112° |
| 2026-05-06 01:21 | 40.96489 | -76.42219 | 19692 ft | 465 kts | 112° |
| 2026-05-06 01:21 | 40.95514 | -76.38160 | 19518 ft | 461 kts | 111° |
| 2026-05-06 01:21 | 40.94543 | -76.34123 | 19360 ft | 459 kts | 111° |
| 2026-05-06 01:22 | 40.93574 | -76.30113 | 19189 ft | 457 kts | 112° |
| 2026-05-06 01:22 | 40.92617 | -76.26157 | 19009 ft | 444 kts | 112° |
| 2026-05-06 01:22 | 40.91691 | -76.22338 | 18912 ft | 428 kts | 112° |
| 2026-05-06 01:22 | 40.90807 | -76.18697 | 18896 ft | 412 kts | 112° |
| 2026-05-06 01:23 | 40.89938 | -76.15133 | 18902 ft | 405 kts | 112° |
| 2026-05-06 01:23 | 40.89070 | -76.11593 | 18910 ft | 407 kts | 112° |
| 2026-05-06 01:23 | 40.88190 | -76.08021 | 18923 ft | 411 kts | 112° |
| 2026-05-06 01:23 | 40.87307 | -76.04429 | 18920 ft | 410 kts | 112° |
| 2026-05-06 01:24 | 40.86424 | -76.00837 | 18914 ft | 410 kts | 113° |
| 2026-05-06 01:24 | 40.85545 | -75.97260 | 18915 ft | 409 kts | 112° |
| 2026-05-06 01:24 | 40.84668 | -75.93693 | 18838 ft | 408 kts | 112° |
| 2026-05-06 01:24 | 40.83799 | -75.90161 | 18634 ft | 401 kts | 113° |
| 2026-05-06 01:25 | 40.82944 | -75.86698 | 18195 ft | 401 kts | 112° |
| 2026-05-06 01:25 | 40.82077 | -75.83195 | 17581 ft | 402 kts | 112° |
| 2026-05-06 01:25 | 40.81208 | -75.79685 | 17017 ft | 402 kts | 112° |
| 2026-05-06 01:25 | 40.80339 | -75.76183 | 16509 ft | 400 kts | 112° |
| 2026-05-06 01:26 | 40.79474 | -75.72698 | 16022 ft | 398 kts | 112° |
| 2026-05-06 01:26 | 40.78611 | -75.69229 | 15588 ft | 395 kts | 112° |
| 2026-05-06 01:26 | 40.77757 | -75.65797 | 15173 ft | 393 kts | 112° |
| 2026-05-06 01:26 | 40.76904 | -75.62375 | 14724 ft | 392 kts | 111° |
| 2026-05-06 01:27 | 40.76055 | -75.58982 | 14404 ft | 386 kts | 111° |
| 2026-05-06 01:27 | 40.75219 | -75.55642 | 14137 ft | 380 kts | 111° |
| 2026-05-06 01:27 | 40.74400 | -75.52367 | 13900 ft | 373 kts | 111° |
| 2026-05-06 01:27 | 40.73592 | -75.49145 | 13666 ft | 367 kts | 111° |
| 2026-05-06 01:28 | 40.72798 | -75.45982 | 13417 ft | 360 kts | 111° |
| 2026-05-06 01:28 | 40.72080 | -75.42840 | 13171 ft | 355 kts | 108° |
| 2026-05-06 01:28 | 40.71464 | -75.39720 | 12945 ft | 348 kts | 107° |
| 2026-05-06 01:28 | 40.70880 | -75.36661 | 12732 ft | 341 kts | 107° |
| 2026-05-06 01:29 | 40.70301 | -75.33652 | 12525 ft | 335 kts | 108° |
| 2026-05-06 01:29 | 40.69734 | -75.30743 | 12321 ft | 329 kts | 108° |
| 2026-05-06 01:29 | 40.69159 | -75.27835 | 12119 ft | 325 kts | 108° |
| 2026-05-06 01:29 | 40.68587 | -75.24961 | 11925 ft | 324 kts | 108° |
| 2026-05-06 01:30 | 40.68014 | -75.22097 | 11730 ft | 323 kts | 108° |
| 2026-05-06 01:30 | 40.67441 | -75.19237 | 11522 ft | 321 kts | 108° |
| 2026-05-06 01:30 | 40.66867 | -75.16400 | 11331 ft | 320 kts | 110° |
| 2026-05-06 01:30 | 40.65887 | -75.13839 | 11111 ft | 309 kts | 135° |
| 2026-05-06 01:31 | 40.64454 | -75.11765 | 10964 ft | 305 kts | 139° |
| 2026-05-06 01:31 | 40.62999 | -75.09742 | 10757 ft | 304 kts | 139° |
| 2026-05-06 01:31 | 40.61549 | -75.07712 | 10578 ft | 304 kts | 138° |
| 2026-05-06 01:31 | 40.60105 | -75.05674 | 10392 ft | 305 kts | 137° |
| 2026-05-06 01:32 | 40.58663 | -75.03630 | 10207 ft | 304 kts | 137° |
| 2026-05-06 01:32 | 40.57255 | -75.01607 | 10038 ft | 304 kts | 133° |
| 2026-05-06 01:32 | 40.56230 | -74.99160 | 9987 ft | 310 kts | 114° |
| 2026-05-06 01:32 | 40.55461 | -74.96491 | 9975 ft | 311 kts | 113° |
| 2026-05-06 01:33 | 40.54694 | -74.93826 | 9976 ft | 310 kts | 113° |
| 2026-05-06 01:33 | 40.53925 | -74.91180 | 9963 ft | 309 kts | 114° |
| 2026-05-06 01:33 | 40.53149 | -74.88543 | 9964 ft | 309 kts | 114° |
| 2026-05-06 01:33 | 40.52369 | -74.85917 | 9963 ft | 309 kts | 114° |
| 2026-05-06 01:34 | 40.51586 | -74.83291 | 9974 ft | 308 kts | 114° |
| 2026-05-06 01:34 | 40.50801 | -74.80664 | 9976 ft | 308 kts | 114° |
| 2026-05-06 01:34 | 40.50015 | -74.78044 | 9970 ft | 309 kts | 114° |
| 2026-05-06 01:34 | 40.49228 | -74.75425 | 9969 ft | 308 kts | 114° |
| 2026-05-06 01:35 | 40.48439 | -74.72802 | 9976 ft | 308 kts | 114° |
| 2026-05-06 01:35 | 40.47659 | -74.70212 | 9975 ft | 309 kts | 114° |
| 2026-05-06 01:35 | 40.46870 | -74.67594 | 9971 ft | 309 kts | 114° |
| 2026-05-06 01:35 | 40.46080 | -74.64970 | 9973 ft | 309 kts | 114° |
| 2026-05-06 01:36 | 40.45289 | -74.62347 | 9973 ft | 309 kts | 114° |
| 2026-05-06 01:36 | 40.44494 | -74.59718 | 9974 ft | 310 kts | 114° |
| 2026-05-06 01:36 | 40.43698 | -74.57084 | 9977 ft | 310 kts | 114° |
| 2026-05-06 01:36 | 40.43113 | -74.54353 | 9959 ft | 314 kts | 94° |
| 2026-05-06 01:37 | 40.43398 | -74.51526 | 9981 ft | 314 kts | 73° |
| 2026-05-06 01:37 | 40.44097 | -74.48805 | 9985 ft | 315 kts | 70° |
| 2026-05-06 01:37 | 40.44851 | -74.46100 | 9998 ft | 315 kts | 69° |
| 2026-05-06 01:37 | 40.45608 | -74.43409 | 9999 ft | 315 kts | 70° |
| 2026-05-06 01:38 | 40.46352 | -74.40737 | 9991 ft | 315 kts | 70° |
| 2026-05-06 01:38 | 40.47096 | -74.38030 | 9994 ft | 315 kts | 70° |
| 2026-05-06 01:38 | 40.47835 | -74.35319 | 9987 ft | 315 kts | 70° |
| 2026-05-06 01:38 | 40.48567 | -74.32614 | 9996 ft | 314 kts | 70° |
| 2026-05-06 01:39 | 40.49296 | -74.29905 | 10003 ft | 314 kts | 70° |
| 2026-05-06 01:39 | 40.50021 | -74.27201 | 10006 ft | 314 kts | 70° |
| 2026-05-06 01:39 | 40.50747 | -74.24492 | 10011 ft | 314 kts | 70° |
| 2026-05-06 01:39 | 40.51472 | -74.21778 | 10006 ft | 314 kts | 71° |
| 2026-05-06 01:40 | 40.52195 | -74.19072 | 10012 ft | 314 kts | 71° |
| 2026-05-06 01:40 | 40.52920 | -74.16357 | 10010 ft | 314 kts | 71° |
| 2026-05-06 01:40 | 40.53643 | -74.13642 | 10009 ft | 315 kts | 71° |
| 2026-05-06 01:40 | 40.54357 | -74.10960 | 10007 ft | 315 kts | 71° |
| 2026-05-06 01:41 | 40.55086 | -74.08242 | 10004 ft | 315 kts | 68° |
| 2026-05-06 01:41 | 40.56268 | -74.05799 | 10020 ft | 312 kts | 43° |
| 2026-05-06 01:41 | 40.57378 | -74.04613 | 10033 ft | 309 kts | 31° |
| 2026-05-06 01:41 | 40.59813 | -74.02588 | 10028 ft | 310 kts | 29° |
| 2026-05-06 01:42 | 40.61641 | -74.01079 | 10028 ft | 310 kts | 30° |
| 2026-05-06 01:42 | 40.62846 | -74.00072 | 10013 ft | 310 kts | 29° |
| 2026-05-06 01:42 | 40.64669 | -73.98549 | 10019 ft | 310 kts | 28° |
| 2026-05-06 01:42 | 40.66653 | -73.97561 | 10019 ft | 302 kts | 2° |
| 2026-05-06 01:43 | 40.69370 | -73.97677 | 9859 ft | 292 kts | 349° |
| 2026-05-06 01:43 | 40.71381 | -73.98006 | 9510 ft | 292 kts | 348° |
| 2026-05-06 01:43 | 40.72748 | -73.98242 | 9242 ft | 293 kts | 347° |
| 2026-05-06 01:43 | 40.75424 | -73.98704 | 8809 ft | 292 kts | 347° |
| 2026-05-06 01:44 | 40.76786 | -73.98935 | 8616 ft | 291 kts | 347° |
| 2026-05-06 01:44 | 40.78795 | -73.99270 | 8256 ft | 290 kts | 347° |
| 2026-05-06 01:44 | 40.80774 | -73.99593 | 7926 ft | 290 kts | 347° |
| 2026-05-06 01:44 | 40.82786 | -73.99914 | 7571 ft | 291 kts | 347° |
| 2026-05-06 01:45 | 40.84790 | -74.00220 | 7316 ft | 288 kts | 347° |
| 2026-05-06 01:45 | 40.86786 | -74.00491 | 7056 ft | 290 kts | 352° |
| 2026-05-06 01:45 | 40.88815 | -74.00050 | 6676 ft | 303 kts | 20° |
| 2026-05-06 01:45 | 40.90509 | -73.98483 | 6588 ft | 294 kts | 43° |
| 2026-05-06 01:46 | 40.91869 | -73.96512 | 6338 ft | 288 kts | 46° |
| 2026-05-06 01:46 | 40.93180 | -73.94510 | 5936 ft | 287 kts | 47° |
| 2026-05-06 01:46 | 40.94479 | -73.92520 | 5614 ft | 284 kts | 47° |
| 2026-05-06 01:46 | 40.95756 | -73.90551 | 5234 ft | 281 kts | 47° |
| 2026-05-06 01:47 | 40.97029 | -73.88588 | 4928 ft | 279 kts | 47° |
| 2026-05-06 01:47 | 40.98289 | -73.86659 | 4580 ft | 277 kts | 47° |
| 2026-05-06 01:47 | 40.99550 | -73.84736 | 4229 ft | 275 kts | 47° |
| 2026-05-06 01:47 | 41.00815 | -73.82835 | 3824 ft | 275 kts | 47° |
| 2026-05-06 01:48 | 41.02087 | -73.80940 | 3475 ft | 274 kts | 48° |
| 2026-05-06 01:48 | 41.03031 | -73.78857 | 3463 ft | 260 kts | 83° |
| 2026-05-06 01:48 | 41.02890 | -73.76556 | 3498 ft | 250 kts | 124° |
| 2026-05-06 01:48 | 41.01815 | -73.74873 | 3464 ft | 235 kts | 154° |
| 2026-05-06 01:49 | 41.00457 | -73.73774 | 3363 ft | 219 kts | 166° |
| 2026-05-06 01:49 | 40.99083 | -73.73212 | 3277 ft | 195 kts | 181° |
| 2026-05-06 01:49 | 40.97807 | -73.73168 | 3168 ft | 172 kts | 198° |
| 2026-05-06 01:49 | 40.96704 | -73.73526 | 3120 ft | 160 kts | 201° |
| 2026-05-06 01:50 | 40.95621 | -73.73882 | 3091 ft | 159 kts | 201° |
| 2026-05-06 01:50 | 40.94557 | -73.74234 | 3055 ft | 155 kts | 202° |
| 2026-05-06 01:50 | 40.93570 | -73.74695 | 2933 ft | 151 kts | 213° |
| 2026-05-06 01:50 | 40.92680 | -73.75386 | 2817 ft | 146 kts | 215° |
| 2026-05-06 01:51 | 40.91815 | -73.76097 | 2690 ft | 145 kts | 216° |
| 2026-05-06 01:51 | 40.90967 | -73.76798 | 2564 ft | 143 kts | 215° |
| 2026-05-06 01:51 | 40.90129 | -73.77492 | 2438 ft | 141 kts | 214° |
| 2026-05-06 01:51 | 40.89308 | -73.78171 | 2308 ft | 136 kts | 214° |
| 2026-05-06 01:52 | 40.88513 | -73.78826 | 2184 ft | 134 kts | 214° |
| 2026-05-06 01:52 | 40.87719 | -73.79483 | 2066 ft | 135 kts | 214° |
| 2026-05-06 01:52 | 40.86919 | -73.80143 | 1962 ft | 137 kts | 213° |
| 2026-05-06 01:52 | 40.86119 | -73.80805 | 1785 ft | 132 kts | 212° |
| 2026-05-06 01:53 | 40.85367 | -73.81425 | 1631 ft | 122 kts | 213° |
| 2026-05-06 01:53 | 40.84648 | -73.82017 | 1416 ft | 123 kts | 213° |
| 2026-05-06 01:53 | 40.83927 | -73.82615 | 1281 ft | 127 kts | 212° |
| 2026-05-06 01:53 | 40.83180 | -73.83232 | 1097 ft | 125 kts | 213° |
| 2026-05-06 01:54 | 40.82474 | -73.83815 | 966 ft | 118 kts | 213° |
| 2026-05-06 01:54 | 40.81749 | -73.84416 | 796 ft | 128 kts | 210° |
| 2026-05-06 01:54 | 40.80963 | -73.85044 | 693 ft | 136 kts | 210° |
| 2026-05-06 01:54 | 40.80140 | -73.85743 | 401 ft | 144 kts | 212° |
| 2026-05-06 01:55 | 40.79307 | -73.86436 | 213 ft | 141 kts | 210° |
| 2026-05-06 01:55 | 40.78488 | -73.87122 | 55 ft | 140 kts | 210° |
| 2026-05-06 01:55 | 40.77655 | -73.87794 | 22 ft | 140 kts | 211° |
| 2026-05-06 01:55 | 40.77064 | -73.88289 | 20 ft | 22 kts | 212° |
| 2026-05-06 01:56 | 40.77040 | -73.88285 | 14 ft | 5 kts | 118° |
| 2026-05-06 01:56 | 40.77048 | -73.88206 | 22 ft | 13 kts | 76° |
| 2026-05-06 01:56 | 40.77083 | -73.88131 | 20 ft | 8 kts | 34° |
| 2026-05-06 01:56 | 40.77128 | -73.88091 | 20 ft | 8 kts | 33° |
| 2026-05-06 01:57 | 40.77180 | -73.88047 | 21 ft | 12 kts | 32° |
| 2026-05-06 01:57 | 40.77262 | -73.87979 | 19 ft | 15 kts | 34° |
| 2026-05-06 01:57 | 40.77345 | -73.87907 | 19 ft | 14 kts | 33° |
| 2026-05-06 01:57 | 40.77426 | -73.87841 | 21 ft | 13 kts | 31° |
| 2026-05-06 01:58 | 40.77503 | -73.87780 | 20 ft | 13 kts | 31° |
| 2026-05-06 01:58 | 40.77581 | -73.87709 | 21 ft | 14 kts | 48° |
| 2026-05-06 01:58 | 40.77580 | -73.87597 | 21 ft | 13 kts | 132° |
| 2026-05-06 01:58 | 40.77510 | -73.87521 | 20 ft | 13 kts | 137° |
| 2026-05-06 01:59 | 40.77477 | -73.87447 | 20 ft | 6 kts | 97° |
| 2026-05-06 01:59 | 40.77492 | -73.87404 | 22 ft | 2 kts | 45° |
| 2026-05-06 01:59 | 40.77500 | -73.87395 | 20 ft | 2 kts | 41° |